Time;durP1;ratioP1;P1;durP2;ratioP2;P2;SDS_P1;SDS_P2;PMS_P1;PMS_P2;Temp;Humidity;BMP_temperature;BMP_pressure;BME280_temperature;BME280_humidity;BME280_pressure;Samples;Min_cycle;Max_cycle;Signal;HPM_P1;HPM_P2
2022/09/26 00:00:42;;;;;;;9.32;6.18;;;;;;;13.56;54.08;95409.72;5041776;28;20022;-90
2022/09/26 00:03:08;;;;;;;11.13;6.68;;;;;;;13.57;54.37;95406.84;5006781;28;20099;-91
2022/09/26 00:05:34;;;;;;;11.45;7.55;;;;;;;13.60;54.43;95408.31;5037996;28;20021;-91
2022/09/26 00:08:00;;;;;;;12.25;7.15;;;;;;;13.60;54.29;95411.00;5041807;28;20215;-90
2022/09/26 00:10:25;;;;;;;11.50;7.55;;;;;;;13.56;54.64;95412.41;5022680;28;20036;-91
2022/09/26 00:12:52;;;;;;;11.65;7.45;;;;;;;13.57;54.66;95408.72;5028053;28;20048;-90
2022/09/26 00:15:17;;;;;;;11.90;7.30;;;;;;;13.61;54.74;95407.28;5023916;28;20021;-90
2022/09/26 00:17:43;;;;;;;11.00;7.50;;;;;;;13.61;54.85;95403.78;5037194;28;20370;-90
2022/09/26 00:20:08;;;;;;;14.90;7.25;;;;;;;13.56;55.40;95407.88;5038655;28;20013;-91
2022/09/26 00:22:34;;;;;;;12.63;7.75;;;;;;;13.57;54.99;95416.78;5022260;28;20081;-91
2022/09/26 00:24:59;;;;;;;11.02;7.15;;;;;;;13.57;55.17;95403.31;5040590;28;20032;-90
2022/09/26 00:27:24;;;;;;;11.95;8.25;;;;;;;13.59;54.60;95412.03;5037476;28;20045;-91
2022/09/26 00:29:50;;;;;;;14.00;7.75;;;;;;;13.56;55.57;95417.81;5039215;28;20033;-91
2022/09/26 00:32:15;;;;;;;13.77;7.45;;;;;;;13.56;55.07;95412.41;5038725;28;20448;-91
2022/09/26 00:34:41;;;;;;;10.13;7.18;;;;;;;13.47;56.07;95404.47;5038613;28;20540;-91
2022/09/26 00:37:07;;;;;;;11.18;6.35;;;;;;;13.52;54.81;95403.91;5040205;28;20116;-91
2022/09/26 00:39:33;;;;;;;11.07;6.80;;;;;;;13.51;54.53;95390.63;5039066;28;20021;-90
2022/09/26 00:41:58;;;;;;;9.35;6.55;;;;;;;13.43;54.93;95389.72;5006608;28;20029;-92
2022/09/26 00:44:44;;;;;;;9.73;6.57;;;;;;;13.31;54.68;95388.59;5039222;28;20029;-91
2022/09/26 00:47:47;;;;;;;13.63;6.90;;;;;;;13.12;55.50;95396.31;5051416;28;20029;-90
2022/09/26 00:50:19;;;;;;;14.57;7.07;;;;;;;13.08;55.56;95395.88;5049238;28;20121;-91
2022/09/26 00:53:06;;;;;;;13.10;7.05;;;;;;;13.14;54.90;95394.25;5049928;28;20052;-90
2022/09/26 00:55:37;;;;;;;10.45;7.13;;;;;;;13.07;55.09;95388.81;5036579;28;20034;-91
2022/09/26 00:58:09;;;;;;;13.68;6.97;;;;;;;13.13;54.52;95391.75;5024279;28;20088;-91
2022/09/26 01:00:34;;;;;;;11.38;7.13;;;;;;;13.18;54.28;95395.53;5025088;28;20029;-92
2022/09/26 01:03:00;;;;;;;9.45;6.88;;;;;;;13.20;54.02;95404.25;5006494;28;20025;-92
2022/09/26 01:05:25;;;;;;;11.05;7.53;;;;;;;13.22;54.46;95412.13;5024412;28;20048;-91
2022/09/26 01:07:51;;;;;;;10.77;7.18;;;;;;;13.22;54.80;95402.19;5041960;28;20045;-90
2022/09/26 01:10:17;;;;;;;12.82;7.47;;;;;;;13.27;54.92;95403.50;5026561;28;20056;-91
2022/09/26 01:12:42;;;;;;;12.35;7.18;;;;;;;13.16;54.56;95399.44;5009319;28;20096;-92
2022/09/26 01:15:08;;;;;;;11.20;6.80;;;;;;;13.03;54.31;95397.47;5046217;28;20397;-90
2022/09/26 01:17:37;;;;;;;9.75;6.93;;;;;;;13.05;54.66;95393.56;5027325;28;20018;-90
2022/09/26 01:20:09;;;;;;;12.15;7.43;;;;;;;13.11;54.60;95394.63;5039501;28;20032;-90
2022/09/26 01:23:05;;;;;;;11.73;7.40;;;;;;;12.91;54.20;95395.31;5051089;28;20051;-91
2022/09/26 01:25:31;;;;;;;10.85;7.00;;;;;;;12.80;54.16;95391.25;5031942;28;20060;-91
2022/09/26 01:28:15;;;;;;;11.65;7.05;;;;;;;12.82;54.34;95393.75;5051590;28;20026;-90
2022/09/26 01:30:42;;;;;;;12.68;7.15;;;;;;;12.71;54.50;95392.41;5055805;28;20143;-91
2022/09/26 01:33:34;;;;;;;11.80;6.80;;;;;;;12.70;54.35;95386.19;5033351;28;20045;-91
2022/09/26 01:36:02;;;;;;;10.93;7.05;;;;;;;12.68;54.64;95393.63;5055093;28;20057;-91
2022/09/26 01:38:37;;;;;;;12.10;6.80;;;;;;;12.73;54.83;95393.88;5054457;28;20028;-92
2022/09/26 01:41:02;;;;;;;10.32;6.78;;;;;;;12.80;55.21;95388.56;5054613;28;20033;-91
2022/09/26 01:44:05;;;;;;;12.05;7.03;;;;;;;12.77;55.70;95383.56;5055267;28;20029;-91
2022/09/26 01:46:37;;;;;;;11.02;6.95;;;;;;;12.86;55.09;95381.59;5054186;28;20347;-93
2022/09/26 01:49:29;;;;;;;10.70;7.30;;;;;;;12.79;55.70;95372.59;5055280;28;20025;-92
2022/09/26 01:52:01;;;;;;;11.45;7.40;;;;;;;12.84;55.12;95383.63;5053876;28;20087;-92
2022/09/26 01:54:30;;;;;;;9.90;6.68;;;;;;;12.83;55.06;95381.97;5054762;28;20017;-91
2022/09/26 01:56:57;;;;;;;10.30;6.80;;;;;;;12.87;55.26;95372.47;5038863;28;20234;-91
2022/09/26 01:59:28;;;;;;;10.93;7.53;;;;;;;12.92;55.49;95370.06;5036732;28;20216;-91
2022/09/26 02:01:57;;;;;;;11.80;7.18;;;;;;;12.93;55.47;95365.50;5038535;28;20085;-91
2022/09/26 02:04:28;;;;;;;13.32;7.20;;;;;;;12.97;55.26;95362.25;5020538;28;20064;-90
2022/09/26 02:07:01;;;;;;;12.38;7.35;;;;;;;12.82;54.68;95370.38;5037668;28;20025;-91
2022/09/26 02:09:39;;;;;;;;;;;;;;;12.70;55.16;95369.22;5037311;28;20056;-91
2022/09/26 02:12:05;;;;;;;13.25;7.50;;;;;;;12.74;54.97;95378.56;5053549;28;19913;-91
2022/09/26 02:14:33;;;;;;;11.57;7.43;;;;;;;12.56;55.30;95373.63;5054139;28;20038;-91
2022/09/26 02:17:03;;;;;;;10.48;7.30;;;;;;;12.49;55.76;95360.94;5051593;28;20033;-89
2022/09/26 02:19:31;;;;;;;13.40;7.35;;;;;;;12.49;56.08;95362.81;5037252;28;20037;-91
2022/09/26 02:21:57;;;;;;;11.75;6.45;;;;;;;12.52;56.33;95364.28;5035862;28;20085;-90
2022/09/26 02:24:23;;;;;;;12.95;7.45;;;;;;;12.57;55.68;95348.41;5037878;28;20060;-90
2022/09/26 02:26:49;;;;;;;14.77;7.53;;;;;;;12.64;55.85;95345.78;5036154;28;20028;-88
2022/09/26 02:29:15;;;;;;;13.15;7.53;;;;;;;12.46;56.07;95345.19;5053361;28;20032;-90
2022/09/26 02:32:11;;;;;;;12.60;7.75;;;;;;;12.46;56.16;95339.81;5053193;28;20025;-91
2022/09/26 02:34:38;;;;;;;9.90;7.13;;;;;;;12.48;56.61;95342.28;5050550;28;20057;-89
2022/09/26 02:37:04;;;;;;;10.23;7.70;;;;;;;12.46;56.92;95347.88;5031477;28;20037;-88
2022/09/26 02:39:29;;;;;;;12.18;7.50;;;;;;;12.48;56.89;95342.28;5008306;28;20032;-90
2022/09/26 02:42:08;;;;;;;9.77;7.20;;;;;;;12.69;56.72;95351.41;5029069;28;20033;-90
2022/09/26 02:45:06;;;;;;;11.55;6.95;;;;;;;12.81;56.62;95340.97;5048860;28;20030;-90
2022/09/26 02:47:44;;;;;;;9.20;6.50;;;;;;;12.83;55.93;95333.53;5048616;28;20085;-90
2022/09/26 02:50:18;;;;;;;11.40;6.97;;;;;;;12.86;55.92;95327.75;5047045;28;20036;-90
2022/09/26 02:53:09;;;;;;;11.75;7.30;;;;;;;12.82;56.01;95335.38;5047662;28;20125;-91
2022/09/26 02:55:55;;;;;;;12.82;7.45;;;;;;;12.70;56.43;95339.63;5027577;28;20109;-91
2022/09/26 02:58:34;;;;;;;12.88;7.20;;;;;;;12.70;56.53;95324.28;5029961;28;20025;-90
2022/09/26 03:01:12;;;;;;;11.32;6.75;;;;;;;12.67;56.60;95319.31;5041271;28;20038;-91
2022/09/26 03:03:56;;;;;;;12.65;6.78;;;;;;;12.69;56.66;95317.25;5016944;28;20036;-91
2022/09/26 03:06:26;;;;;;;20.33;7.85;;;;;;;12.65;56.74;95321.38;5038018;28;20038;-91
2022/09/26 03:08:51;;;;;;;16.95;6.93;;;;;;;12.65;56.61;95309.78;5001729;28;20040;-91
2022/09/26 03:11:22;;;;;;;13.27;6.85;;;;;;;12.56;56.22;95315.28;5016180;28;20030;-92
2022/09/26 03:13:48;;;;;;;15.00;7.32;;;;;;;12.56;56.43;95323.34;5021653;28;20072;-91
2022/09/26 03:16:14;;;;;;;17.25;8.00;;;;;;;12.43;56.78;95307.09;5006239;28;20025;-91
2022/09/26 03:19:15;;;;;;;11.75;6.90;;;;;;;12.40;57.33;95308.28;5023379;28;20033;-92
2022/09/26 03:21:41;;;;;;;18.15;8.35;;;;;;;12.44;56.85;95309.59;5064179;28;20044;-92
2022/09/26 03:24:07;;;;;;;13.00;6.90;;;;;;;12.40;56.80;95319.06;5028357;28;20092;-91
2022/09/26 03:26:33;;;;;;;11.68;7.20;;;;;;;12.43;56.80;95307.91;5165896;23;20017;-90
2022/09/26 03:28:58;;;;;;;16.73;6.80;;;;;;;12.42;56.58;95308.94;5005056;28;20061;-90
2022/09/26 03:31:24;;;;;;;13.45;6.13;;;;;;;12.38;56.51;95310.34;4986909;28;20057;-90
2022/09/26 03:33:52;;;;;;;17.23;6.78;;;;;;;12.32;57.31;95311.09;5003499;28;20025;-91
2022/09/26 03:36:19;;;;;;;11.38;7.03;;;;;;;12.33;57.04;95307.41;5022542;28;20057;-92
2022/09/26 03:38:45;;;;;;;11.20;7.03;;;;;;;12.26;57.21;95301.13;5042779;28;20025;-90
2022/09/26 03:41:10;;;;;;;12.23;6.63;;;;;;;12.14;57.61;95301.59;5005048;28;20113;-90
2022/09/26 03:43:36;;;;;;;13.25;7.13;;;;;;;12.04;57.65;95301.88;5018358;28;20045;-91
2022/09/26 03:46:06;;;;;;;10.75;6.60;;;;;;;12.01;57.72;95315.69;5021034;28;20419;-91
2022/09/26 03:48:32;;;;;;;15.57;6.60;;;;;;;12.01;57.81;95302.25;5004821;28;20489;-91
2022/09/26 03:51:16;;;;;;;12.13;6.47;;;;;;;12.12;57.44;95295.63;4990785;28;20040;-91
2022/09/26 03:53:42;;;;;;;10.80;6.65;;;;;;;12.10;57.75;95286.91;5033319;28;20022;-92
2022/09/26 03:56:09;;;;;;;9.57;6.25;;;;;;;12.17;57.59;95286.97;5017906;28;20026;-91
2022/09/26 03:58:35;;;;;;;9.10;6.40;;;;;;;12.26;57.81;95293.88;4984212;28;20034;-91
2022/09/26 04:01:08;;;;;;;8.80;5.97;;;;;;;12.15;57.84;95300.59;5028483;28;20037;-90
2022/09/26 04:03:37;;;;;;;8.90;6.47;;;;;;;12.07;58.28;95308.75;4997132;28;20063;-91
2022/09/26 04:06:04;;;;;;;9.10;6.25;;;;;;;12.14;58.00;95307.00;5016649;28;20048;-91
2022/09/26 04:08:30;;;;;;;11.65;7.10;;;;;;;12.21;57.73;95310.59;4981202;28;20022;-91
2022/09/26 04:11:03;;;;;;;12.52;6.55;;;;;;;12.32;58.11;95311.09;4996976;28;20049;-91
2022/09/26 04:13:29;;;;;;;15.27;6.90;;;;;;;12.42;58.30;95305.41;4982612;28;20019;-91
2022/09/26 04:15:55;;;;;;;8.95;6.07;;;;;;;12.46;57.54;95304.84;4981403;28;20022;-90
2022/09/26 04:18:21;;;;;;;11.57;6.60;;;;;;;12.49;57.54;95298.25;5000665;28;20029;-91
2022/09/26 04:20:46;;;;;;;10.00;6.35;;;;;;;12.59;57.68;95298.75;4986817;28;20026;-91
2022/09/26 04:23:12;;;;;;;10.27;6.90;;;;;;;12.60;57.20;95307.66;5000746;28;20014;-90
2022/09/26 04:25:37;;;;;;;12.02;6.32;;;;;;;12.62;57.08;95311.00;4989934;28;20030;-92
2022/09/26 04:28:03;;;;;;;10.77;6.35;;;;;;;12.64;56.91;95314.31;5008234;28;20045;-89
2022/09/26 04:30:29;;;;;;;11.35;6.03;;;;;;;12.63;56.91;95320.72;5011510;28;20037;-88
2022/09/26 04:32:54;;;;;;;10.27;6.35;;;;;;;12.67;56.90;95313.91;5009951;28;20034;-90
2022/09/26 04:35:20;;;;;;;9.48;5.55;;;;;;;12.71;57.23;95315.22;4995789;28;20049;-90
2022/09/26 04:37:46;;;;;;;11.23;6.30;;;;;;;12.68;56.74;95309.38;4994393;28;20038;-91
2022/09/26 04:40:11;;;;;;;15.45;6.88;;;;;;;12.72;57.04;95302.56;5010564;28;20058;-91
2022/09/26 04:42:37;;;;;;;13.45;6.32;;;;;;;12.76;57.31;95305.72;5003553;28;20022;-92
2022/09/26 04:45:03;;;;;;;11.10;6.10;;;;;;;12.84;56.48;95294.81;5009215;28;20030;-91
2022/09/26 04:47:29;;;;;;;10.88;5.95;;;;;;;12.92;56.40;95301.91;5003430;28;20034;-91
2022/09/26 04:49:54;;;;;;;12.75;6.63;;;;;;;12.93;56.38;95288.25;5009435;28;20529;-91
2022/09/26 04:52:19;;;;;;;13.98;7.00;;;;;;;12.90;57.57;95290.50;5007067;28;20022;-91
2022/09/26 04:54:45;;;;;;;15.02;8.68;;;;;;;12.96;56.76;95295.94;5006594;28;20341;-92
2022/09/26 04:57:12;;;;;;;12.00;6.85;;;;;;;12.94;56.69;95297.19;5007491;28;20022;-91
2022/09/26 04:59:37;;;;;;;15.82;6.90;;;;;;;12.94;57.52;95305.25;5006520;28;20029;-91
2022/09/26 05:02:04;;;;;;;18.35;6.82;;;;;;;12.96;57.00;95295.13;4989108;28;20027;-91
2022/09/26 05:04:32;;;;;;;13.88;6.90;;;;;;;12.94;56.76;95292.63;4986125;28;20456;-90
2022/09/26 05:06:58;;;;;;;13.32;8.25;;;;;;;12.99;57.01;95292.06;4999482;28;20075;-92
2022/09/26 05:09:24;;;;;;;13.05;7.18;;;;;;;13.01;56.79;95294.53;4982273;28;20026;-91
2022/09/26 05:11:49;;;;;;;15.80;7.57;;;;;;;13.09;56.58;95305.97;4980058;28;20037;-91
2022/09/26 05:14:14;;;;;;;10.38;7.20;;;;;;;13.10;56.70;95294.22;4995865;28;20027;-91
2022/09/26 05:16:40;;;;;;;24.05;7.90;;;;;;;13.21;56.98;95295.50;4980271;28;20041;-91
2022/09/26 05:19:05;;;;;;;15.27;8.35;;;;;;;13.19;56.73;95289.47;4966312;28;20023;-92
2022/09/26 05:21:31;;;;;;;13.50;8.23;;;;;;;13.21;57.08;95286.59;4997449;28;20022;-90
2022/09/26 05:26:42;;;;;;;15.15;7.93;;;;;;;13.44;57.31;95283.63;4996612;28;20112;-93
2022/09/26 05:29:08;;;;;;;14.68;8.50;;;;;;;13.72;56.80;95288.16;4978886;28;20030;-91
2022/09/26 05:31:36;;;;;;;14.88;8.10;;;;;;;13.91;55.72;95268.75;5003147;28;20094;-90
2022/09/26 05:34:06;;;;;;;13.20;7.78;;;;;;;14.09;55.73;95277.06;4987930;28;20157;-91
2022/09/26 05:36:31;;;;;;;14.35;7.45;;;;;;;14.12;55.34;95267.78;4996724;28;20037;-91
2022/09/26 05:38:57;;;;;;;16.02;7.68;;;;;;;14.34;54.68;95262.19;5000348;28;20026;-92
2022/09/26 05:41:22;;;;;;;15.98;8.30;;;;;;;14.26;54.78;95260.53;4986488;28;20082;-90
2022/09/26 05:43:48;;;;;;;14.90;8.32;;;;;;;14.32;54.59;95253.47;4997672;28;20056;-91
2022/09/26 05:46:13;;;;;;;15.32;7.68;;;;;;;14.39;53.98;95248.94;4996265;28;20042;-92
2022/09/26 05:48:39;;;;;;;13.05;7.05;;;;;;;14.40;53.91;95255.16;4988534;28;20030;-90
2022/09/26 05:51:05;;;;;;;13.68;7.40;;;;;;;14.39;54.44;95270.53;4993330;28;20094;-91
2022/09/26 05:53:33;;;;;;;15.02;8.10;;;;;;;14.37;53.97;95283.38;5005320;28;20057;-92
2022/09/26 05:55:58;;;;;;;12.73;7.70;;;;;;;14.32;53.69;95278.59;5004862;28;20483;-94
2022/09/26 05:58:30;;;;;;;12.65;7.18;;;;;;;14.34;54.31;95273.00;4982518;28;20022;-91
2022/09/26 06:01:00;;;;;;;14.57;7.57;;;;;;;14.40;54.38;95282.13;4983598;28;20093;-91
2022/09/26 06:03:26;;;;;;;14.25;7.15;;;;;;;14.56;53.93;95270.94;5001692;28;20030;-92
2022/09/26 06:05:52;;;;;;;21.80;7.75;;;;;;;14.71;53.51;95281.56;4996311;28;20034;-91
2022/09/26 06:08:17;;;;;;;22.77;7.20;;;;;;;14.80;53.12;95281.34;4980845;28;20019;-91
2022/09/26 06:10:43;;;;;;;23.13;7.57;;;;;;;15.08;53.05;95278.47;4995698;28;20034;-93
2022/09/26 06:13:08;;;;;;;30.30;8.70;;;;;;;15.21;51.96;95290.28;4976374;28;20027;-92
2022/09/26 06:15:34;;;;;;;28.65;7.97;;;;;;;15.13;52.01;95285.09;4992782;28;20031;-93
2022/09/26 06:18:03;;;;;;;22.40;8.15;;;;;;;15.13;52.56;95280.53;4995683;28;20407;-92
2022/09/26 06:20:29;;;;;;;27.95;7.65;;;;;;;15.09;52.25;95276.56;4996423;28;20125;-90
2022/09/26 06:22:56;;;;;;;42.30;8.25;;;;;;;15.07;52.69;95276.78;4977919;28;20086;-91
2022/09/26 06:25:22;;;;;;;19.58;7.32;;;;;;;15.16;52.99;95290.06;4995659;28;20018;-92
2022/09/26 06:27:48;;;;;;;25.52;7.95;;;;;;;14.95;52.79;95290.09;4992827;28;20370;-92
2022/09/26 06:30:13;;;;;;;21.02;6.53;;;;;;;15.25;51.69;95283.41;5005685;28;20113;-92
2022/09/26 06:32:39;;;;;;;11.25;6.68;;;;;;;15.31;51.51;95284.44;4978980;28;20034;-91
2022/09/26 06:35:05;;;;;;;15.90;6.50;;;;;;;14.99;51.95;95277.03;4995294;28;20031;-92
2022/09/26 06:37:30;;;;;;;12.90;7.32;;;;;;;15.27;51.77;95270.53;4995743;28;20037;-91
2022/09/26 06:39:56;;;;;;;12.43;5.97;;;;;;;15.47;51.33;95264.25;4978920;28;20038;-92
2022/09/26 06:42:23;;;;;;;9.77;6.03;;;;;;;15.32;51.01;95273.44;4976612;28;20030;-92
2022/09/26 06:44:48;;;;;;;17.25;7.32;;;;;;;15.43;51.36;95247.63;4994332;28;20398;-92
2022/09/26 06:47:13;;;;;;;20.17;6.93;;;;;;;15.73;50.45;95253.56;4996649;28;20030;-91
2022/09/26 06:49:39;;;;;;;28.63;6.90;;;;;;;15.25;51.74;95261.78;4993454;28;20034;-91
2022/09/26 06:52:04;;;;;;;16.90;6.22;;;;;;;15.57;52.15;95251.13;4996238;28;20034;-91
2022/09/26 06:54:30;;;;;;;13.13;7.03;;;;;;;15.40;51.49;95263.44;4977688;28;20371;-92
2022/09/26 06:56:55;;;;;;;17.92;6.93;;;;;;;15.39;51.51;95268.03;4993921;28;20030;-91
2022/09/26 06:59:22;;;;;;;20.17;7.38;;;;;;;15.78;51.75;95265.38;4976487;28;20027;-91
2022/09/26 07:01:47;;;;;;;18.45;6.95;;;;;;;16.03;50.49;95277.38;4977397;28;20037;-90
2022/09/26 07:04:14;;;;;;;14.68;6.60;;;;;;;16.24;49.79;95267.28;4993035;28;20026;-91
2022/09/26 07:06:40;;;;;;;18.42;7.40;;;;;;;16.52;49.58;95263.38;4990767;28;20492;-91
2022/09/26 07:09:06;;;;;;;16.65;6.75;;;;;;;16.44;49.17;95273.41;4959085;28;20030;-90
2022/09/26 07:11:31;;;;;;;16.63;7.38;;;;;;;16.10;49.27;95266.53;4990063;28;20034;-93
2022/09/26 07:14:00;;;;;;;18.40;6.70;;;;;;;16.25;49.46;95271.66;4992850;28;20037;-91
2022/09/26 07:16:26;;;;;;;16.33;6.65;;;;;;;16.23;49.48;95266.47;4992368;28;20488;-92
2022/09/26 07:18:52;;;;;;;26.17;6.85;;;;;;;16.17;49.29;95268.16;4975013;28;20022;-90
2022/09/26 07:21:17;;;;;;;23.30;5.65;;;;;;;16.29;49.22;95273.72;4973950;28;20465;-91
2022/09/26 07:23:43;;;;;;;18.98;6.68;;;;;;;16.70;49.38;95269.91;4990719;28;20037;-90
2022/09/26 07:26:08;;;;;;;10.38;5.00;;;;;;;16.85;48.09;95269.56;4974800;28;20018;-91
2022/09/26 07:28:34;;;;;;;22.70;5.95;;;;;;;17.12;47.29;95266.69;4991121;28;20053;-91
2022/09/26 07:30:59;;;;;;;18.65;5.63;;;;;;;17.26;47.17;95279.06;4992107;28;20041;-90
2022/09/26 07:33:24;;;;;;;23.85;6.55;;;;;;;17.30;46.54;95268.59;5001793;28;20049;-92
2022/09/26 07:35:50;;;;;;;16.38;5.95;;;;;;;17.15;47.61;95282.50;4961805;28;20034;-90
2022/09/26 07:38:16;;;;;;;14.70;5.82;;;;;;;17.12;47.30;95272.91;4991139;28;20031;-90
2022/09/26 07:40:42;;;;;;;12.80;5.28;;;;;;;17.27;47.05;95269.03;4974678;28;20026;-92
2022/09/26 07:43:07;;;;;;;10.68;5.35;;;;;;;17.46;47.00;95269.88;4989879;28;20026;-92
2022/09/26 07:51:01;;;;;;;7.65;4.47;;;;;;;18.17;44.77;95255.09;4988473;28;20097;-92
2022/09/26 07:53:26;;;;;;;12.77;4.32;;;;;;;18.01;44.34;95251.94;4973551;28;20030;-91
2022/09/26 07:56:05;;;;;;;8.93;4.63;;;;;;;18.30;44.54;95240.50;4972988;28;20030;-91
2022/09/26 07:58:37;;;;;;;6.47;4.70;;;;;;;18.48;44.04;95238.78;4989903;28;20026;-91
2022/09/26 08:01:04;;;;;;;10.20;4.97;;;;;;;18.49;44.31;95218.75;4974034;28;20030;-91
2022/09/26 08:03:29;;;;;;;8.55;4.85;;;;;;;18.64;43.36;95213.69;4990063;28;20030;-92
2022/09/26 08:05:57;;;;;;;7.10;4.85;;;;;;;18.52;43.68;95212.84;4989887;28;20034;-91
2022/09/26 08:08:22;;;;;;;10.18;5.05;;;;;;;18.69;43.09;95220.28;4973394;28;20120;-91
2022/09/26 08:10:48;;;;;;;8.13;4.75;;;;;;;18.80;43.36;95219.50;4991599;28;20042;-91
2022/09/26 08:13:13;;;;;;;8.57;4.63;;;;;;;18.93;43.08;95213.00;4958345;28;20027;-89
2022/09/26 08:15:39;;;;;;;11.15;4.82;;;;;;;18.97;42.43;95197.06;4991552;28;20037;-91
2022/09/26 08:18:04;;;;;;;8.05;4.53;;;;;;;19.01;42.67;95199.06;4973620;28;20601;-92
2022/09/26 08:20:30;;;;;;;9.68;4.55;;;;;;;19.05;42.49;95199.44;4973866;28;20101;-93
2022/09/26 08:22:55;;;;;;;8.00;4.32;;;;;;;18.97;42.40;95194.34;4974121;28;20409;-90
2022/09/26 08:25:20;;;;;;;13.30;4.68;;;;;;;19.05;42.69;95187.72;4974260;28;20382;-91
2022/09/26 08:27:47;;;;;;;7.55;4.15;;;;;;;19.24;42.26;95183.00;4991162;28;20046;-91
2022/09/26 08:30:13;;;;;;;10.10;4.22;;;;;;;19.33;42.79;95183.50;4973172;28;20041;-91
2022/09/26 08:32:39;;;;;;;6.25;4.60;;;;;;;19.40;41.89;95184.16;4990970;28;20019;-91
2022/09/26 08:35:05;;;;;;;9.25;4.65;;;;;;;19.56;41.41;95188.03;4956400;28;20035;-90
2022/09/26 08:37:31;;;;;;;8.75;4.10;;;;;;;19.25;41.84;95193.66;4989949;28;20033;-91
2022/09/26 08:39:56;;;;;;;5.93;3.88;;;;;;;19.18;41.81;95181.25;4988015;28;20030;-90
2022/09/26 08:42:34;;;;;;;5.75;3.83;;;;;;;19.44;41.73;95176.38;4993062;28;20027;-91
2022/09/26 08:48:31;;;;;;;6.47;3.97;;;;;;;19.93;41.06;95175.13;4975827;28;20093;-91
2022/09/26 08:51:10;;;;;;;6.55;3.83;;;;;;;19.95;40.87;95171.13;4961636;28;20110;-92
2022/09/26 08:53:49;;;;;;;7.20;4.30;;;;;;;20.09;40.95;95174.41;4960064;28;20026;-91
2022/09/26 08:56:21;;;;;;;9.57;3.38;;;;;;;20.26;40.79;95173.63;4973116;28;20053;-90
2022/09/26 08:58:50;;;;;;;7.45;3.40;;;;;;;20.45;40.22;95170.66;4973359;28;20033;-92
2022/09/26 09:01:28;;;;;;;9.73;4.35;;;;;;;20.40;40.15;95168.69;4956594;28;20026;-90
2022/09/26 09:03:57;;;;;;;12.98;3.85;;;;;;;20.46;40.51;95166.84;4989444;28;20429;-91
2022/09/26 09:06:22;;;;;;;14.15;4.20;;;;;;;20.58;39.54;95159.44;4972916;28;20022;-92
2022/09/26 09:08:49;;;;;;;14.32;4.28;;;;;;;20.47;39.76;95152.19;4973337;28;20026;-91
2022/09/26 09:11:52;;;;;;;24.75;4.82;;;;;;;20.28;39.78;95157.03;4972748;28;20033;-93
2022/09/26 09:14:18;;;;;;;22.63;4.75;;;;;;;20.09;40.55;95154.50;4990307;28;20196;-92
2022/09/26 09:16:59;;;;;;;10.75;3.85;;;;;;;20.22;40.29;95145.22;5009226;28;20523;-91
2022/09/26 09:19:36;;;;;;;9.77;4.00;;;;;;;20.57;41.14;95129.72;4992935;28;20101;-92
2022/09/26 09:22:20;;;;;;;7.63;3.60;;;;;;;20.70;40.10;95134.81;5008936;28;20122;-90
2022/09/26 09:25:00;;;;;;;7.60;4.15;;;;;;;20.56;39.40;95130.78;4992688;28;20567;-92
2022/09/26 09:27:31;;;;;;;7.80;3.40;;;;;;;20.59;42.09;95120.22;4991927;28;20145;-91
2022/09/26 09:30:42;;;;;;;7.57;3.30;;;;;;;20.92;40.21;95119.66;5009525;28;20486;-92
2022/09/26 09:33:14;;;;;;;6.78;3.10;;;;;;;21.04;40.08;95123.09;5014717;28;20034;-92
2022/09/26 09:35:46;;;;;;;8.27;3.55;;;;;;;21.12;39.78;95119.09;4980075;28;20022;-91
2022/09/26 09:38:15;;;;;;;6.63;3.35;;;;;;;21.43;39.87;95113.22;5001424;28;20098;-92
2022/09/26 09:40:43;;;;;;;5.78;3.50;;;;;;;21.47;39.62;95100.72;4993813;28;20018;-90
2022/09/26 09:43:33;;;;;;;7.15;3.15;;;;;;;21.33;38.78;95113.91;4979848;28;20038;-91
2022/09/26 09:46:05;;;;;;;7.68;3.10;;;;;;;21.36;38.46;95097.88;4996527;28;20031;-91
2022/09/26 09:48:30;;;;;;;5.82;3.50;;;;;;;21.44;40.44;95098.50;4962488;28;20035;-93
2022/09/26 09:51:14;;;;;;;5.18;2.88;;;;;;;21.61;39.91;95101.16;4995611;28;20061;-91
2022/09/26 09:54:15;;;;;;;9.93;2.72;;;;;;;21.96;38.06;95091.72;4993475;28;20509;-91
2022/09/26 09:57:05;;;;;;;7.00;2.72;;;;;;;22.01;38.50;95096.41;4991369;28;20362;-92
2022/09/26 09:59:49;;;;;;;4.63;2.50;;;;;;;22.10;37.79;95083.13;4992020;28;20494;-92
2022/09/26 10:02:23;;;;;;;6.75;2.25;;;;;;;22.36;39.43;95080.59;4991363;28;20037;-92
2022/09/26 10:05:22;;;;;;;6.40;2.40;;;;;;;22.54;36.95;95079.38;4976386;28;20117;-92
2022/09/26 10:07:48;;;;;;;10.55;3.17;;;;;;;22.54;36.89;95079.38;4991501;28;20043;-93
2022/09/26 10:10:20;;;;;;;4.97;2.20;;;;;;;22.51;37.07;95081.78;4974747;28;20027;-92
2022/09/26 10:12:46;;;;;;;6.82;2.40;;;;;;;22.20;37.17;95075.00;4976043;28;20038;-91
2022/09/26 10:15:20;;;;;;;16.83;4.07;;;;;;;22.48;37.46;95066.75;4975090;28;20034;-92
2022/09/26 10:18:15;;;;;;;6.95;2.83;;;;;;;22.43;37.65;95063.97;4976270;28;20471;-92
2022/09/26 10:20:52;;;;;;;4.35;2.38;;;;;;;22.56;37.24;95069.00;4977567;28;20594;-93
2022/09/26 10:23:31;;;;;;;9.80;2.90;;;;;;;22.64;36.98;95064.16;4976484;28;20141;-92
2022/09/26 10:26:04;;;;;;;5.32;2.25;;;;;;;22.84;37.36;95067.00;4991894;28;20482;-92
2022/09/26 10:28:30;;;;;;;;;;;;;;;22.68;36.31;95059.81;4975994;28;20084;-92
2022/09/26 10:31:00;;;;;;;3.55;2.17;;;;;;;22.81;36.76;95070.28;4975582;28;19925;-93
2022/09/26 10:33:28;;;;;;;4.82;2.20;;;;;;;22.78;36.20;95073.53;4958815;28;20030;-92
2022/09/26 10:35:59;;;;;;;4.47;2.38;;;;;;;22.74;36.67;95061.50;4975180;28;20018;-91
2022/09/26 10:38:28;;;;;;;5.22;2.40;;;;;;;22.87;36.30;95054.75;4975352;28;20035;-93
2022/09/26 10:40:58;;;;;;;5.88;1.90;;;;;;;22.65;36.13;95043.94;4991334;28;20089;-92
2022/09/26 10:43:31;;;;;;;6.32;2.33;;;;;;;22.95;37.83;95035.09;4959416;28;20493;-94
2022/09/26 10:46:14;;;;;;;5.50;2.20;;;;;;;23.01;36.37;95025.00;4974671;28;20090;-91
2022/09/26 10:48:46;;;;;;;3.50;2.20;;;;;;;22.97;36.63;95034.84;4959259;28;20034;-93
2022/09/26 10:51:22;;;;;;;12.40;2.55;;;;;;;22.91;36.17;95025.78;4992471;28;20030;-94
2022/09/26 10:53:50;;;;;;;5.35;2.42;;;;;;;23.02;37.37;95018.44;4992068;28;20045;-92
2022/09/26 10:56:22;;;;;;;8.00;2.60;;;;;;;23.14;36.63;95028.31;4990810;28;20082;-91
2022/09/26 10:58:50;;;;;;;6.30;2.58;;;;;;;22.91;36.44;95036.72;4974681;28;20022;-92
2022/09/26 11:01:20;;;;;;;10.13;3.10;;;;;;;23.13;36.21;95033.00;4959406;28;20113;-92
2022/09/26 11:03:45;;;;;;;5.28;2.28;;;;;;;23.24;35.78;95042.06;4958368;28;20022;-91
2022/09/26 11:06:42;;;;;;;3.92;2.42;;;;;;;23.21;36.08;95023.44;4974417;28;20034;-92
2022/09/26 11:09:09;;;;;;;2.78;1.90;;;;;;;23.37;36.51;95018.03;4998646;28;20045;-93
2022/09/26 11:11:36;;;;;;;8.00;2.85;;;;;;;23.46;36.32;95013.69;4957371;28;20033;-91
2022/09/26 11:14:09;;;;;;;4.97;2.60;;;;;;;23.56;37.06;95012.91;4958116;28;20121;-90
2022/09/26 11:16:43;;;;;;;4.97;2.03;;;;;;;23.51;35.65;95005.50;4973631;28;20420;-90
2022/09/26 11:19:41;;;;;;;6.32;2.47;;;;;;;23.57;35.07;95015.38;4991308;28;20119;-91
2022/09/26 11:22:31;;;;;;;4.93;2.20;;;;;;;23.49;35.39;95006.88;4991468;28;20034;-91
2022/09/26 11:25:05;;;;;;;6.70;2.10;;;;;;;23.58;35.64;94997.88;4975375;28;20041;-90
2022/09/26 11:27:42;;;;;;;5.70;2.40;;;;;;;23.62;35.10;94994.59;4995668;28;20050;-89
2022/09/26 11:30:13;;;;;;;4.70;2.35;;;;;;;23.67;35.15;95003.63;4974011;28;20109;-90
2022/09/26 11:32:41;;;;;;;3.92;2.25;;;;;;;23.64;35.28;94976.78;4988320;28;20029;-91
2022/09/26 11:35:27;;;;;;;6.50;2.40;;;;;;;23.81;35.18;94971.03;4956496;28;20030;-89
2022/09/26 11:38:04;;;;;;;9.43;2.70;;;;;;;23.89;36.97;94972.41;4972329;28;20082;-92
2022/09/26 11:40:35;;;;;;;6.70;2.35;;;;;;;23.93;36.55;94972.69;4989227;28;20466;-91
2022/09/26 11:43:28;;;;;;;7.05;2.55;;;;;;;24.12;37.28;94963.94;4989369;28;20032;-92
2022/09/26 11:46:13;;;;;;;5.13;2.30;;;;;;;24.13;35.20;94971.06;4989900;28;20495;-90
2022/09/26 11:49:15;;;;;;;3.55;2.72;;;;;;;24.17;35.59;94956.56;4989265;28;20030;-92
2022/09/26 11:52:13;;;;;;;5.47;2.30;;;;;;;24.13;34.79;94962.84;4987408;28;20036;-90
2022/09/26 11:55:03;;;;;;;7.63;2.40;;;;;;;24.16;35.52;94957.66;4989122;28;20034;-91
2022/09/26 11:58:13;;;;;;;3.80;2.25;;;;;;;24.38;35.98;94948.31;4989743;28;20500;-90